Onset, Massachusetts
Current Conditions -  °F | °C
As of 11:35 AM on Friday 24 Oct 2014 (Local Time) from KFMH Reporting Station
Overcast Overcast  
Wind Chill: 52°   Ceiling: 1300
Heat Index: 52°   Visibility: 10mi
Dew Point: 48°   Wind: 12mph
Humidity: 88%   Direction: 360°N
Pressure: 29.68"   Gusts: 20mph
Location:  41.75°N, 70.67°W
Report Text: KFMH 241535Z AUTO 36010G17KT 10SM BKN013 OVC018 11/09 A2968 RMK AO2
Loading
Personal Weather Stations






























Interactive Weather Map
Tropical Storm Tracking
New forecast layout! Learn more

10-Day Weather Forecast

Advertisements
Track Severe Weather on mobile